Time;durP1;ratioP1;P1;durP2;ratioP2;P2;SDS_P1;SDS_P2;PMS_P1;PMS_P2;Temp;Humidity;BMP_temperature;BMP_pressure;BME280_temperature;BME280_humidity;BME280_pressure;Samples;Min_cycle;Max_cycle;Signal;HPM_P1;HPM_P2
2023/03/22 00:01:21;;;;;;;7.72;1.17;;;20.20;58.70;;;;;;5116191;28;20151;-63
2023/03/22 00:03:50;;;;;;;8.90;6.15;;;19.90;58.90;;;;;;5121979;28;20089;-61
2023/03/22 00:06:17;;;;;;;4.55;1.20;;;20.20;58.70;;;;;;5116339;28;20070;-63
2023/03/22 00:08:47;;;;;;;3.60;0.98;;;20.40;58.20;;;;;;5119288;28;20090;-65
2023/03/22 00:11:13;;;;;;;3.33;1.23;;;20.80;57.70;;;;;;5119761;28;20078;-62
2023/03/22 00:13:41;;;;;;;10.00;1.27;;;21.00;56.30;;;;;;5118068;28;20082;-62
2023/03/22 00:16:09;;;;;;;5.45;1.17;;;21.40;56.20;;;;;;5116934;28;20110;-62
2023/03/22 00:18:36;;;;;;;2.80;0.73;;;21.60;55.30;;;;;;5118294;28;20519;-63
2023/03/22 00:21:02;;;;;;;4.63;2.38;;;21.70;55.80;;;;;;5116556;28;20079;-60
2023/03/22 00:23:29;;;;;;;2.92;1.00;;;21.80;54.40;;;;;;5117431;28;20071;-63
2023/03/22 00:25:56;;;;;;;4.13;1.00;;;21.80;54.40;;;;;;5116876;28;20170;-61
2023/03/22 00:28:23;;;;;;;5.43;1.15;;;21.70;54.60;;;;;;5116498;27;20066;-61
2023/03/22 00:30:55;;;;;;;3.88;1.58;;;21.80;54.40;;;;;;5106834;27;20072;-65
2023/03/22 00:33:22;;;;;;;6.00;1.80;;;22.00;55.10;;;;;;5116868;27;20067;-63
2023/03/22 00:35:50;;;;;;;8.77;1.75;;;21.90;54.70;;;;;;5122630;27;20090;-66
2023/03/22 00:38:16;;;;;;;5.63;1.48;;;21.60;59.60;;;;;;5118423;27;20078;-64
2023/03/22 00:40:43;;;;;;;9.27;1.40;;;21.30;60.20;;;;;;5117573;27;20459;-62
2023/03/22 00:43:09;;;;;;;4.78;1.40;;;21.00;59.90;;;;;;5121640;27;20131;-64
2023/03/22 00:45:36;;;;;;;7.93;1.70;;;21.10;60.90;;;;;;5119537;27;20135;-62
2023/03/22 00:48:04;;;;;;;14.27;2.25;;;21.10;59.80;;;;;;5118888;27;20071;-62
2023/03/22 00:50:30;;;;;;;3.42;1.05;;;21.10;59.80;;;;;;5124153;27;20134;-63
2023/03/22 00:52:56;;;;;;;7.93;1.40;;;20.90;58.60;;;;;;5126857;27;20431;-64
2023/03/22 00:55:23;;;;;;;6.68;1.38;;;21.30;59.40;;;;;;5129143;27;20583;-65
2023/03/22 00:57:49;;;;;;;7.28;1.33;;;21.30;58.10;;;;;;5118368;27;20078;-62
2023/03/22 01:00:16;;;;;;;4.43;1.25;;;21.20;57.90;;;;;;5120743;27;20062;-63
2023/03/22 01:02:43;;;;;;;4.95;1.08;;;21.00;57.10;;;;;;5127991;27;20173;-64
2023/03/22 01:05:14;;;;;;;6.32;1.52;;;21.00;57.80;;;;;;5125347;27;20082;-64
2023/03/22 01:07:44;;;;;;;5.05;1.27;;;21.10;58.30;;;;;;5118152;27;20165;-64
2023/03/22 01:10:11;;;;;;;3.90;1.42;;;21.00;57.00;;;;;;5128017;27;20161;-64
2023/03/22 01:12:38;;;;;;;14.82;2.00;;;20.90;57.40;;;;;;5124697;27;20139;-65
2023/03/22 01:15:06;;;;;;;3.10;1.20;;;21.10;57.70;;;;;;5121571;27;20075;-64
2023/03/22 01:17:32;;;;;;;3.45;1.40;;;20.90;57.60;;;;;;5124727;27;20555;-65
2023/03/22 01:19:58;;;;;;;10.77;2.05;;;21.10;57.80;;;;;;5117008;27;20497;-63
2023/03/22 01:22:25;;;;;;;10.18;1.38;;;21.30;57.70;;;;;;5119236;27;20102;-61
2023/03/22 01:24:52;;;;;;;4.22;1.10;;;21.30;57.00;;;;;;5106352;27;20089;-61
2023/03/22 01:27:19;;;;;;;2.08;1.35;;;21.00;56.30;;;;;;5114923;27;20064;-60
2023/03/22 01:29:45;;;;;;;2.88;1.17;;;20.60;55.60;;;;;;5127333;27;20646;-57
2023/03/22 01:32:11;;;;;;;4.07;1.20;;;20.30;57.50;;;;;;5104118;27;20489;-61
2023/03/22 01:34:38;;;;;;;5.38;1.40;;;20.20;57.60;;;;;;5121773;27;20098;-60
2023/03/22 01:37:04;;;;;;;4.53;1.40;;;20.50;57.90;;;;;;5122416;27;20124;-61
2023/03/22 01:39:31;;;;;;;7.60;1.55;;;20.50;57.10;;;;;;5119033;27;20090;-60
2023/03/22 01:41:57;;;;;;;7.47;1.88;;;20.40;57.00;;;;;;5125133;27;20095;-62
2023/03/22 01:44:24;;;;;;;3.85;1.20;;;20.30;57.20;;;;;;5123798;27;20075;-61
2023/03/22 01:46:51;;;;;;;5.25;1.60;;;20.20;57.30;;;;;;5124023;27;20537;-61
2023/03/22 01:49:30;;;;;;;5.03;1.40;;;20.00;57.40;;;;;;5124161;27;20074;-63
2023/03/22 01:52:12;;;;;;;3.65;1.00;;;20.00;57.60;;;;;;5120573;27;20078;-65
2023/03/22 01:54:44;;;;;;;31.70;2.38;;;19.80;57.00;;;;;;5121213;27;20122;-66
2023/03/22 01:57:11;;;;;;;30.15;3.05;;;19.70;58.10;;;;;;5118189;27;20075;-67
2023/03/22 01:59:39;;;;;;;5.80;1.60;;;19.70;58.60;;;;;;5121114;27;20067;-63
2023/03/22 02:02:06;;;;;;;4.43;1.50;;;19.60;58.00;;;;;;5122942;27;20090;-64
2023/03/22 02:04:38;;;;;;;5.95;1.85;;;19.60;58.50;;;;;;5123918;27;20516;-63
2023/03/22 02:07:14;;;;;;;5.95;1.98;;;19.70;58.40;;;;;;5121719;27;20070;-63
2023/03/22 02:09:41;;;;;;;7.25;1.70;;;19.60;58.70;;;;;;5121201;27;20073;-63
2023/03/22 02:12:28;;;;;;;5.78;2.55;;;19.50;59.10;;;;;;5126248;27;20161;-63
2023/03/22 02:15:14;;;;;;;7.77;1.90;;;19.50;59.00;;;;;;5121507;27;20086;-63
2023/03/22 02:18:00;;;;;;;6.07;1.90;;;19.40;60.20;;;;;;5120919;27;20090;-64
2023/03/22 02:20:51;;;;;;;7.88;2.05;;;19.20;59.40;;;;;;5121472;27;20083;-64
2023/03/22 02:23:27;;;;;;;6.03;1.90;;;19.10;60.70;;;;;;5119351;27;20087;-63
2023/03/22 02:25:59;;;;;;;5.88;2.33;;;19.00;62.10;;;;;;5119365;27;20315;-62
2023/03/22 02:28:34;;;;;;;6.57;1.98;;;19.00;63.50;;;;;;5119846;27;20059;-64
2023/03/22 02:31:25;;;;;;;7.18;1.75;;;18.80;64.10;;;;;;5123540;27;20073;-63
2023/03/22 02:33:51;;;;;;;16.65;2.70;;;18.60;66.20;;;;;;5122581;27;20478;-62
2023/03/22 02:36:43;;;;;;;10.38;1.80;;;18.40;67.20;;;;;;5126879;27;20462;-63
2023/03/22 02:39:24;;;;;;;12.27;1.92;;;18.40;68.20;;;;;;5123892;27;20063;-61
2023/03/22 02:42:15;;;;;;;7.07;3.17;;;18.50;68.90;;;;;;5119090;27;20629;-62
2023/03/22 02:44:46;;;;;;;13.00;2.70;;;18.50;69.00;;;;;;5117859;27;20172;-61
2023/03/22 02:47:30;;;;;;;12.68;2.28;;;18.50;69.60;;;;;;5121525;27;20213;-63
2023/03/22 02:50:07;;;;;;;6.15;1.77;;;18.20;69.30;;;;;;5123272;27;20608;-63
2023/03/22 02:52:56;;;;;;;9.70;2.20;;;18.30;69.70;;;;;;5121411;27;20182;-63
2023/03/22 02:55:38;;;;;;;9.50;2.30;;;18.30;68.70;;;;;;5122098;27;20118;-64
2023/03/22 02:58:33;;;;;;;7.95;2.38;;;18.00;69.30;;;;;;5121157;27;20087;-64
2023/03/22 03:01:04;;;;;;;9.95;2.38;;;17.80;69.20;;;;;;5093398;27;20627;-60
2023/03/22 03:03:36;;;;;;;15.05;2.40;;;17.90;70.40;;;;;;5120970;27;20103;-63
2023/03/22 03:06:16;;;;;;;11.38;2.25;;;17.70;69.60;;;;;;5123498;27;20068;-63
2023/03/22 03:08:56;;;;;;;10.98;2.55;;;17.60;70.30;;;;;;5119793;27;20166;-64
2023/03/22 03:11:24;;;;;;;12.60;2.92;;;17.60;71.30;;;;;;5119633;27;20094;-63
2023/03/22 03:13:53;;;;;;;8.65;2.00;;;17.60;71.10;;;;;;5124614;27;20074;-64
2023/03/22 03:16:26;;;;;;;7.95;2.25;;;17.50;70.50;;;;;;5087713;28;20084;-65
2023/03/22 03:19:22;;;;;;;20.15;3.15;;;17.40;70.80;;;;;;5121424;27;20098;-63
2023/03/22 03:22:00;;;;;;;9.80;2.47;;;17.50;71.10;;;;;;5122162;27;20118;-64
2023/03/22 03:24:48;;;;;;;12.27;2.50;;;17.50;70.30;;;;;;5125373;27;20214;-64
2023/03/22 03:27:21;;;;;;;11.05;2.33;;;17.40;68.80;;;;;;5122067;27;20079;-63
2023/03/22 03:30:07;;;;;;;17.50;3.35;;;17.30;67.80;;;;;;5121274;28;20162;-64
2023/03/22 03:32:49;;;;;;;9.13;2.42;;;17.50;69.00;;;;;;5125176;28;20082;-67
2023/03/22 03:35:37;;;;;;;14.60;3.72;;;17.50;68.50;;;;;;5108366;28;20079;-64
2023/03/22 03:38:10;;;;;;;17.58;4.07;;;17.40;68.90;;;;;;5087179;28;20447;-64
2023/03/22 03:41:05;;;;;;;13.73;3.53;;;17.20;69.80;;;;;;5119937;28;20074;-63
2023/03/22 03:43:33;;;;;;;20.58;3.30;;;17.30;69.80;;;;;;5122344;27;20429;-63
2023/03/22 03:46:00;;;;;;;10.98;2.90;;;17.30;69.80;;;;;;5120808;28;20090;-64
2023/03/22 03:48:34;;;;;;;12.18;2.80;;;17.30;69.90;;;;;;5122415;28;20109;-65
2023/03/22 03:51:01;;;;;;;16.67;3.17;;;17.30;69.80;;;;;;5123022;28;20088;-64
2023/03/22 03:53:29;;;;;;;23.45;3.45;;;17.30;70.60;;;;;;5120797;28;20146;-64
2023/03/22 03:55:55;;;;;;;17.70;3.33;;;17.20;69.30;;;;;;5123732;28;20083;-64
2023/03/22 03:58:22;;;;;;;20.08;3.38;;;17.30;70.10;;;;;;5119924;28;20117;-61
2023/03/22 04:00:49;;;;;;;23.45;3.67;;;17.30;69.50;;;;;;5118645;28;20132;-62
2023/03/22 04:03:16;;;;;;;16.80;3.65;;;17.20;69.10;;;;;;5122088;27;20083;-63
2023/03/22 04:05:43;;;;;;;18.83;3.97;;;17.20;68.50;;;;;;5121360;27;20090;-65
2023/03/22 04:08:10;;;;;;;20.80;4.82;;;17.20;69.40;;;;;;5127644;27;20484;-65
2023/03/22 04:10:36;;;;;;;26.67;4.85;;;17.20;69.50;;;;;;5124466;27;20063;-64
2023/03/22 04:13:03;;;;;;;23.48;4.68;;;17.10;70.60;;;;;;5122097;27;20063;-64
2023/03/22 04:15:29;;;;;;;32.13;7.00;;;17.10;70.40;;;;;;5128785;27;20129;-64
2023/03/22 04:17:55;;;;;;;21.38;5.10;;;17.00;70.40;;;;;;5126605;27;20103;-64
2023/03/22 04:20:22;;;;;;;24.10;5.40;;;17.00;70.10;;;;;;5123239;27;20415;-63
2023/03/22 04:22:49;;;;;;;25.70;4.20;;;17.00;70.50;;;;;;5123096;27;20131;-64
2023/03/22 04:25:17;;;;;;;25.65;4.40;;;17.00;71.20;;;;;;5123881;27;20154;-65
2023/03/22 04:27:49;;;;;;;22.73;4.40;;;17.00;71.00;;;;;;5125705;27;20123;-65
2023/03/22 04:30:19;;;;;;;11.15;3.90;;;16.90;72.40;;;;;;5127519;27;21282;-64
2023/03/22 04:32:46;;;;;;;16.92;4.47;;;16.90;72.00;;;;;;5125140;27;20075;-63
2023/03/22 04:35:13;;;;;;;20.63;5.10;;;16.80;72.60;;;;;;5123931;27;20091;-63
2023/03/22 04:37:41;;;;;;;44.13;5.07;;;16.60;73.20;;;;;;5125205;27;20191;-63
2023/03/22 04:40:15;;;;;;;30.17;5.65;;;16.60;73.30;;;;;;5124327;27;20410;-64
2023/03/22 04:42:42;;;;;;;18.83;4.70;;;16.60;73.10;;;;;;5123603;27;20177;-67
2023/03/22 04:45:10;;;;;;;29.38;5.63;;;16.50;73.10;;;;;;5126546;27;20071;-63
2023/03/22 04:47:37;;;;;;;29.67;4.93;;;16.60;72.90;;;;;;5124729;27;20521;-64
2023/03/22 04:50:04;;;;;;;30.13;4.95;;;16.50;72.90;;;;;;5123564;27;20078;-64
2023/03/22 04:52:30;;;;;;;31.27;5.43;;;16.30;72.90;;;;;;5125010;27;20481;-66
2023/03/22 04:54:57;;;;;;;17.73;5.75;;;16.40;73.40;;;;;;5121475;27;20071;-66
2023/03/22 04:57:23;;;;;;;23.17;6.25;;;16.20;73.50;;;;;;5124494;27;20570;-63
2023/03/22 04:59:50;;;;;;;26.60;7.30;;;16.20;74.30;;;;;;5124962;27;20078;-65
2023/03/22 05:02:16;;;;;;;19.02;6.20;;;16.30;74.10;;;;;;5126197;27;20166;-65
2023/03/22 05:04:43;;;;;;;28.17;5.65;;;16.30;74.30;;;;;;5122910;27;21276;-62
2023/03/22 05:07:09;;;;;;;26.40;5.93;;;16.30;73.80;;;;;;5118728;27;20147;-64
2023/03/22 05:09:35;;;;;;;19.27;4.82;;;16.30;73.40;;;;;;5125590;27;20068;-63
2023/03/22 05:12:02;;;;;;;35.63;6.70;;;16.30;73.60;;;;;;5121922;27;20555;-65
2023/03/22 05:14:28;;;;;;;25.20;4.43;;;16.30;74.60;;;;;;5125078;27;20086;-62
2023/03/22 05:16:55;;;;;;;27.10;5.50;;;16.30;74.60;;;;;;5122191;27;20615;-62
2023/03/22 05:19:23;;;;;;;24.73;5.82;;;16.20;75.10;;;;;;5125010;27;20113;-63
2023/03/22 05:21:56;;;;;;;24.25;6.03;;;16.10;75.20;;;;;;5124242;27;20099;-64
2023/03/22 05:24:23;;;;;;;25.73;5.32;;;16.00;75.80;;;;;;5121805;27;20526;-62
2023/03/22 05:26:52;;;;;;;23.55;6.10;;;15.90;76.40;;;;;;5118259;27;20123;-64
2023/03/22 05:29:20;;;;;;;17.95;5.78;;;15.80;77.40;;;;;;5122843;27;20071;-63
2023/03/22 05:31:46;;;;;;;18.60;6.10;;;15.70;77.90;;;;;;5123000;27;20498;-64
2023/03/22 05:34:13;;;;;;;20.42;4.60;;;15.60;79.90;;;;;;5125183;27;20151;-63
2023/03/22 05:36:39;;;;;;;14.15;4.20;;;15.50;79.90;;;;;;5123979;27;20188;-64
2023/03/22 05:39:06;;;;;;;19.48;5.20;;;15.50;81.20;;;;;;5124778;27;20075;-64
2023/03/22 05:41:33;;;;;;;15.52;4.10;;;15.60;81.50;;;;;;5126690;27;20086;-62
2023/03/22 05:44:00;;;;;;;13.70;4.45;;;15.50;80.80;;;;;;5123734;27;20059;-64
2023/03/22 05:46:26;;;;;;;17.13;4.20;;;15.40;82.30;;;;;;5124823;27;20163;-64
2023/03/22 05:48:53;;;;;;;14.88;3.00;;;15.20;83.80;;;;;;5127069;27;20104;-64
2023/03/22 05:51:19;;;;;;;22.33;3.90;;;15.20;84.40;;;;;;5122191;27;20081;-65
2023/03/22 05:53:48;;;;;;;12.98;3.33;;;15.20;85.00;;;;;;5119041;27;20072;-64
2023/03/22 05:56:15;;;;;;;14.05;3.33;;;15.20;84.70;;;;;;5125299;27;21250;-65
2023/03/22 05:58:41;;;;;;;13.57;3.08;;;15.10;85.60;;;;;;5125554;27;20099;-64
2023/03/22 06:01:15;;;;;;;9.43;3.10;;;15.10;85.50;;;;;;5125318;27;20075;-63
2023/03/22 06:03:41;;;;;;;10.43;3.03;;;15.10;86.00;;;;;;5123503;27;20072;-64
2023/03/22 06:06:12;;;;;;;13.98;3.05;;;15.10;85.80;;;;;;5121803;27;20068;-64
2023/03/22 06:08:39;;;;;;;14.10;2.47;;;15.00;86.00;;;;;;5119767;27;20115;-62
2023/03/22 06:11:06;;;;;;;11.05;2.53;;;14.90;85.90;;;;;;5123685;27;20570;-62
2023/03/22 06:13:32;;;;;;;9.38;2.20;;;14.80;86.70;;;;;;5124603;27;20538;-65
2023/03/22 06:16:01;;;;;;;14.07;2.42;;;14.80;87.70;;;;;;5124441;27;20064;-65
2023/03/22 06:18:27;;;;;;;9.70;2.20;;;14.60;88.70;;;;;;5125011;27;20068;-64
2023/03/22 06:20:54;;;;;;;10.75;2.35;;;14.70;89.10;;;;;;5121216;27;20076;-65
2023/03/22 06:23:20;;;;;;;;;;;14.70;89.10;;;;;;5122044;27;20168;-66
2023/03/22 06:25:46;;;;;;;10.95;2.10;;;14.90;88.60;;;;;;5121170;27;19981;-62
2023/03/22 06:28:13;;;;;;;18.52;8.30;;;14.90;88.30;;;;;;5118516;27;20107;-61
2023/03/22 06:30:39;;;;;;;9.65;2.45;;;15.00;88.30;;;;;;5121720;27;20525;-61
2023/03/22 06:33:06;;;;;;;;;;;14.90;87.80;;;;;;5121156;27;20140;-62
2023/03/22 06:35:33;;;;;;;13.38;2.35;;;15.00;88.20;;;;;;5121212;27;20424;-64
2023/03/22 06:38:00;;;;;;;10.10;2.47;;;14.90;88.50;;;;;;5122451;27;20111;-65
2023/03/22 06:40:26;;;;;;;8.82;2.55;;;14.90;88.20;;;;;;5120458;27;20612;-63
2023/03/22 06:42:55;;;;;;;11.82;2.35;;;15.00;87.50;;;;;;5122579;27;20106;-64
2023/03/22 06:45:22;;;;;;;11.10;2.88;;;15.00;87.50;;;;;;5121736;27;20076;-64
2023/03/22 06:47:49;;;;;;;9.10;2.05;;;15.00;87.20;;;;;;5123632;27;20164;-63
2023/03/22 06:50:16;;;;;;;10.45;2.10;;;15.10;86.90;;;;;;5120877;27;20087;-63
2023/03/22 06:52:42;;;;;;;7.55;1.85;;;15.00;87.20;;;;;;5120141;27;20100;-62
2023/03/22 06:55:09;;;;;;;8.30;1.67;;;15.00;86.80;;;;;;5101379;27;20193;-62
2023/03/22 06:57:35;;;;;;;7.85;1.95;;;15.00;86.80;;;;;;5123460;27;20076;-65
2023/03/22 07:00:03;;;;;;;7.38;2.53;;;15.10;86.60;;;;;;5119818;27;20160;-63
2023/03/22 07:02:30;;;;;;;7.18;2.05;;;15.10;85.90;;;;;;5119881;27;20088;-64
2023/03/22 07:04:56;;;;;;;6.75;2.00;;;15.10;85.10;;;;;;5121213;27;20139;-65
2023/03/22 07:07:23;;;;;;;7.47;1.88;;;15.20;83.70;;;;;;5114814;27;20117;-65
2023/03/22 07:09:50;;;;;;;9.98;2.08;;;15.30;82.10;;;;;;5120193;27;20079;-64
2023/03/22 07:12:17;;;;;;;11.23;1.58;;;15.40;80.30;;;;;;5119650;27;20428;-63
2023/03/22 07:14:44;;;;;;;6.85;1.70;;;15.50;80.10;;;;;;5118780;27;20229;-63
2023/03/22 07:17:12;;;;;;;10.90;2.13;;;15.50;79.80;;;;;;5118052;27;20075;-63
2023/03/22 07:19:41;;;;;;;3.78;1.38;;;15.50;80.00;;;;;;5116059;27;20083;-64
2023/03/22 07:22:08;;;;;;;3.38;1.15;;;15.60;79.70;;;;;;5123772;27;20079;-64
2023/03/22 07:24:34;;;;;;;3.10;1.02;;;15.60;80.20;;;;;;5118520;27;20071;-65
2023/03/22 07:27:01;;;;;;;2.55;1.17;;;15.70;79.80;;;;;;5121791;27;20151;-65
2023/03/22 07:29:27;;;;;;;3.85;0.70;;;15.70;79.80;;;;;;5121171;27;20535;-64
2023/03/22 07:31:54;;;;;;;1.33;0.68;;;15.70;79.80;;;;;;5118308;28;20071;-65
2023/03/22 07:34:20;;;;;;;8.48;0.52;;;15.70;79.20;;;;;;5118103;28;20067;-64
2023/03/22 07:36:46;;;;;;;2.75;0.50;;;15.80;79.00;;;;;;5119791;28;20112;-65
2023/03/22 07:39:13;;;;;;;2.30;0.57;;;15.90;78.60;;;;;;5119196;27;20948;-63
2023/03/22 07:41:40;;;;;;;3.40;0.40;;;15.90;78.80;;;;;;5126057;27;20088;-63
2023/03/22 07:44:06;;;;;;;1.88;0.43;;;15.90;78.80;;;;;;5127406;27;20153;-64
2023/03/22 07:46:33;;;;;;;2.95;0.52;;;15.80;79.10;;;;;;5121526;27;20109;-64
2023/03/22 07:48:59;;;;;;;1.35;0.40;;;15.90;79.00;;;;;;5129041;27;20153;-63
2023/03/22 07:51:25;;;;;;;2.20;0.70;;;15.90;79.30;;;;;;5120973;27;20214;-64
2023/03/22 07:53:52;;;;;;;1.95;0.40;;;15.90;79.00;;;;;;5125580;27;20075;-63
2023/03/22 07:56:18;;;;;;;0.75;0.40;;;15.90;78.90;;;;;;5125000;27;20079;-63
2023/03/22 07:58:44;;;;;;;3.17;0.88;;;15.90;79.20;;;;;;5122402;27;20075;-63
2023/03/22 08:01:11;;;;;;;5.35;0.77;;;15.90;79.10;;;;;;5120154;27;20113;-63
2023/03/22 08:03:38;;;;;;;10.75;1.00;;;16.00;77.40;;;;;;5123615;27;20094;-63
2023/03/22 08:06:06;;;;;;;13.18;1.17;;;16.10;75.60;;;;;;5127244;27;20079;-62
2023/03/22 08:08:36;;;;;;;11.63;1.20;;;16.20;73.90;;;;;;5126013;27;20087;-63
2023/03/22 08:11:04;;;;;;;9.20;1.30;;;16.30;73.80;;;;;;5124673;27;20068;-63
2023/03/22 08:13:30;;;;;;;2.85;0.77;;;16.30;73.80;;;;;;5122730;27;20099;-63
2023/03/22 08:15:57;;;;;;;5.63;0.82;;;16.30;72.90;;;;;;5122524;27;20072;-63
2023/03/22 08:18:23;;;;;;;9.00;0.90;;;16.30;71.60;;;;;;5126039;27;20170;-62
2023/03/22 08:20:55;;;;;;;10.05;1.10;;;16.20;70.90;;;;;;5121626;27;20071;-64
2023/03/22 08:23:22;;;;;;;1.60;0.70;;;16.20;70.60;;;;;;5127396;27;20132;-62
2023/03/22 08:25:49;;;;;;;3.70;0.77;;;16.10;70.60;;;;;;5122766;27;20118;-65
2023/03/22 08:28:16;;;;;;;3.58;1.02;;;16.10;71.80;;;;;;5120201;27;20138;-65
2023/03/22 08:30:47;;;;;;;5.32;0.80;;;16.00;73.10;;;;;;5121209;27;20174;-65
2023/03/22 08:33:14;;;;;;;7.32;0.82;;;15.90;74.30;;;;;;5124582;27;20554;-63
2023/03/22 08:35:41;;;;;;;6.22;0.90;;;15.80;75.20;;;;;;5124357;27;20452;-63
2023/03/22 08:38:08;;;;;;;4.22;1.20;;;15.70;75.60;;;;;;5125325;27;20106;-63
2023/03/22 08:40:34;;;;;;;5.25;0.80;;;15.60;76.00;;;;;;5126044;27;20079;-63
2023/03/22 08:43:01;;;;;;;4.25;1.10;;;15.60;76.30;;;;;;5119193;27;20124;-63
2023/03/22 08:45:27;;;;;;;5.85;0.88;;;15.50;76.80;;;;;;5126380;27;20501;-63
2023/03/22 08:47:54;;;;;;;3.10;0.80;;;15.60;77.00;;;;;;5124305;27;20086;-64
2023/03/22 08:50:20;;;;;;;4.07;0.90;;;15.50;77.60;;;;;;5124458;27;20095;-64
2023/03/22 08:52:47;;;;;;;4.90;0.60;;;15.40;77.70;;;;;;5120407;27;20144;-63
2023/03/22 08:55:16;;;;;;;6.68;0.80;;;15.30;78.10;;;;;;5121040;27;20087;-63
2023/03/22 08:57:49;;;;;;;2.72;0.50;;;15.30;78.10;;;;;;5123241;27;20589;-62
2023/03/22 09:00:17;;;;;;;5.43;0.68;;;15.20;78.10;;;;;;5123239;27;20099;-64
2023/03/22 09:02:43;;;;;;;6.53;0.65;;;15.10;78.60;;;;;;5122486;27;20080;-63
2023/03/22 09:05:12;;;;;;;3.30;0.60;;;15.10;78.60;;;;;;5120492;27;20217;-64
2023/03/22 09:07:38;;;;;;;1.75;0.70;;;15.10;78.80;;;;;;5124117;27;20096;-62
2023/03/22 09:10:05;;;;;;;7.95;1.02;;;15.00;78.30;;;;;;5123884;27;20115;-64
2023/03/22 09:12:32;;;;;;;13.70;1.60;;;15.00;77.40;;;;;;5123171;27;20068;-65
2023/03/22 09:14:58;;;;;;;25.13;6.55;;;15.10;74.60;;;;;;5120564;27;20433;-65
2023/03/22 09:17:25;;;;;;;9.88;1.42;;;15.20;73.00;;;;;;5125716;27;20107;-65
2023/03/22 09:19:52;;;;;;;8.65;1.10;;;15.20;73.00;;;;;;5125626;27;20145;-64
2023/03/22 09:22:18;;;;;;;6.43;1.33;;;15.30;72.60;;;;;;5122380;27;20493;-65
2023/03/22 09:24:45;;;;;;;7.57;1.10;;;15.30;72.40;;;;;;5124130;27;20159;-65
2023/03/22 09:27:11;;;;;;;7.35;1.27;;;15.40;72.30;;;;;;5122990;27;20083;-64
2023/03/22 09:29:37;;;;;;;9.20;1.30;;;15.30;72.30;;;;;;5122611;27;20075;-63
2023/03/22 09:32:04;;;;;;;8.00;1.10;;;15.40;71.90;;;;;;5123261;27;20072;-62
2023/03/22 09:34:31;;;;;;;5.88;1.30;;;15.40;71.80;;;;;;5123601;27;20078;-64
2023/03/22 09:36:57;;;;;;;4.00;1.27;;;15.30;71.90;;;;;;5120810;27;20126;-63
2023/03/22 09:39:23;;;;;;;7.07;1.40;;;15.30;72.40;;;;;;5123648;27;20118;-63
2023/03/22 09:41:58;;;;;;;5.72;0.90;;;15.30;72.20;;;;;;5122774;27;20093;-62
2023/03/22 09:44:32;;;;;;;6.32;1.25;;;15.30;70.90;;;;;;5118120;27;20072;-61
2023/03/22 09:47:01;;;;;;;6.00;1.13;;;15.30;71.50;;;;;;5125702;27;20064;-64
2023/03/22 09:49:38;;;;;;;5.63;1.67;;;15.30;72.00;;;;;;5119759;27;20088;-64
2023/03/22 09:52:14;;;;;;;6.30;1.20;;;15.30;72.50;;;;;;5121828;27;20594;-64
2023/03/22 09:54:43;;;;;;;4.18;1.20;;;15.30;72.80;;;;;;5125580;27;20141;-63
2023/03/22 09:57:23;;;;;;;6.40;1.25;;;15.30;73.00;;;;;;5122121;27;20536;-63
2023/03/22 10:00:23;;;;;;;7.75;1.50;;;15.30;72.80;;;;;;5118976;27;20508;-63
2023/03/22 10:03:15;;;;;;;7.50;1.30;;;15.30;73.60;;;;;;5121980;27;20092;-65
2023/03/22 10:05:47;;;;;;;7.68;1.40;;;15.30;72.50;;;;;;5092729;27;20521;-64
2023/03/22 10:08:17;;;;;;;5.43;1.17;;;15.20;72.30;;;;;;5121744;27;20086;-61
2023/03/22 10:10:43;;;;;;;9.27;1.33;;;15.20;72.10;;;;;;5123865;27;20120;-62
2023/03/22 10:13:18;;;;;;;8.07;1.27;;;15.20;72.20;;;;;;5122759;27;20425;-63
2023/03/22 10:15:54;;;;;;;7.00;1.77;;;15.20;72.30;;;;;;5123688;27;20067;-64
2023/03/22 10:18:29;;;;;;;11.80;1.98;;;15.10;71.20;;;;;;5121898;27;20116;-64
2023/03/22 10:21:11;;;;;;;8.70;1.90;;;15.10;71.50;;;;;;5123209;27;20075;-64
2023/03/22 10:23:56;;;;;;;8.68;2.00;;;15.20;71.80;;;;;;5124336;27;20090;-63
2023/03/22 10:26:28;;;;;;;10.07;2.30;;;15.20;71.50;;;;;;5120688;27;20105;-64
2023/03/22 10:29:02;;;;;;;8.60;1.75;;;15.10;71.00;;;;;;5103597;27;20099;-64
2023/03/22 10:31:30;;;;;;;10.45;1.60;;;15.00;72.20;;;;;;5121903;27;20163;-64
2023/03/22 10:34:15;;;;;;;12.98;1.77;;;14.80;73.10;;;;;;5124516;27;20064;-63
2023/03/22 10:36:43;;;;;;;10.70;1.70;;;14.80;73.60;;;;;;5121545;27;20164;-64
2023/03/22 10:39:27;;;;;;;8.88;1.95;;;14.80;73.30;;;;;;5123372;27;20130;-64
2023/03/22 10:41:58;;;;;;;12.65;1.40;;;14.80;73.70;;;;;;5122435;27;20460;-64
2023/03/22 10:44:27;;;;;;;8.25;1.50;;;14.70;73.10;;;;;;5123997;27;20071;-65
2023/03/22 10:46:56;;;;;;;16.55;2.00;;;14.70;72.30;;;;;;5117451;27;20151;-65
2023/03/22 10:49:31;;;;;;;14.85;2.38;;;14.60;72.20;;;;;;5121404;27;20075;-65
2023/03/22 10:52:03;;;;;;;17.60;2.30;;;14.70;72.50;;;;;;5122524;27;20082;-65
2023/03/22 10:54:30;;;;;;;16.35;1.75;;;14.70;70.00;;;;;;5123245;27;20128;-64
2023/03/22 10:56:56;;;;;;;13.80;2.35;;;14.80;70.90;;;;;;5124435;27;20079;-63
2023/03/22 10:59:41;;;;;;;;;;;14.70;69.80;;;;;;5119239;27;20273;-64
2023/03/22 11:02:30;;;;;;;10.65;1.70;;;14.70;68.60;;;;;;5122232;27;19971;-65
2023/03/22 11:04:59;;;;;;;7.95;1.80;;;14.80;67.60;;;;;;5121622;27;20771;-65
2023/03/22 11:07:37;;;;;;;14.80;1.98;;;14.80;66.70;;;;;;5121301;27;20099;-64
2023/03/22 11:10:09;;;;;;;10.07;1.90;;;14.90;67.00;;;;;;5120026;27;20066;-63
2023/03/22 11:12:39;;;;;;;10.23;1.77;;;14.90;67.50;;;;;;5122742;27;20489;-65
2023/03/22 11:15:18;;;;;;;11.05;1.95;;;15.00;67.40;;;;;;5123878;27;20072;-64
2023/03/22 11:17:45;;;;;;;7.88;1.83;;;15.10;68.00;;;;;;5122844;27;20076;-63
2023/03/22 11:20:16;;;;;;;9.65;1.70;;;15.00;68.20;;;;;;5121477;27;20066;-63
2023/03/22 11:22:45;;;;;;;6.53;1.63;;;15.00;68.20;;;;;;5122579;27;20083;-63
2023/03/22 11:25:45;;;;;;;6.78;1.50;;;15.10;67.10;;;;;;5121724;27;20064;-62
2023/03/22 11:28:19;;;;;;;8.55;1.55;;;15.10;67.70;;;;;;5115138;27;20070;-65
2023/03/22 11:31:16;;;;;;;10.07;1.85;;;15.10;67.90;;;;;;5120165;27;20559;-65
2023/03/22 11:34:00;;;;;;;12.27;1.85;;;15.10;68.20;;;;;;5121867;27;20078;-64
2023/03/22 11:36:28;;;;;;;9.77;1.70;;;15.00;68.00;;;;;;5124927;28;20066;-64
2023/03/22 11:39:05;;;;;;;7.50;1.85;;;14.90;68.20;;;;;;5120580;28;20170;-65
2023/03/22 11:41:40;;;;;;;7.70;1.50;;;15.00;68.20;;;;;;5123118;28;20077;-65
2023/03/22 11:44:17;;;;;;;5.43;1.35;;;15.00;67.70;;;;;;5118240;28;20110;-65
2023/03/22 11:46:59;;;;;;;11.02;1.45;;;15.00;67.20;;;;;;5120626;28;20073;-64
2023/03/22 11:49:47;;;;;;;9.80;1.50;;;15.00;66.40;;;;;;5121216;28;20582;-65
2023/03/22 11:52:26;;;;;;;12.32;1.63;;;15.10;65.80;;;;;;5123861;28;20097;-64
2023/03/22 11:54:55;;;;;;;5.93;1.63;;;15.20;65.60;;;;;;5120448;28;20479;-63
2023/03/22 11:57:29;;;;;;;7.75;1.60;;;15.10;65.10;;;;;;5124331;28;20152;-65
2023/03/22 12:00:10;;;;;;;9.70;1.40;;;15.20;65.20;;;;;;5122326;28;20072;-65
2023/03/22 12:02:45;;;;;;;7.15;1.60;;;15.20;64.80;;;;;;5121949;28;20092;-65
2023/03/22 12:05:21;;;;;;;5.93;1.60;;;15.20;65.30;;;;;;5117269;28;20130;-65
2023/03/22 12:07:54;;;;;;;7.90;1.80;;;15.20;65.30;;;;;;5122514;28;20420;-64
2023/03/22 12:10:32;;;;;;;4.25;1.20;;;15.20;65.50;;;;;;5121406;28;20091;-64
2023/03/22 12:13:05;;;;;;;4.47;1.40;;;15.10;66.00;;;;;;5122858;28;20104;-65
2023/03/22 12:15:35;;;;;;;9.93;1.63;;;15.20;66.20;;;;;;5123365;28;20540;-64
2023/03/22 12:18:14;;;;;;;6.85;1.77;;;15.10;66.50;;;;;;5124616;28;20542;-65
2023/03/22 12:20:54;;;;;;;8.75;2.00;;;15.00;68.80;;;;;;5120934;28;20158;-64
2023/03/22 12:23:23;;;;;;;14.70;2.03;;;15.00;71.70;;;;;;5120654;27;20180;-65
2023/03/22 12:26:14;;;;;;;8.65;1.60;;;14.80;73.40;;;;;;5125985;27;20174;-64
2023/03/22 12:29:00;;;;;;;10.02;1.80;;;14.60;73.70;;;;;;5126577;27;20470;-64
2023/03/22 12:31:36;;;;;;;10.43;2.42;;;14.70;70.70;;;;;;5121814;27;20092;-65
2023/03/22 12:34:27;;;;;;;9.20;1.60;;;14.70;69.00;;;;;;5125338;27;20082;-64
2023/03/22 12:36:55;;;;;;;6.60;1.50;;;14.80;69.50;;;;;;5126417;27;20103;-65
2023/03/22 12:39:29;;;;;;;5.68;1.67;;;14.80;69.70;;;;;;5125280;27;20066;-65
2023/03/22 12:42:00;;;;;;;4.80;1.17;;;14.70;69.10;;;;;;5126664;27;20452;-65
2023/03/22 12:44:36;;;;;;;7.70;1.98;;;14.70;69.10;;;;;;5123184;27;20423;-65
2023/03/22 12:47:17;;;;;;;4.82;1.80;;;14.70;68.90;;;;;;5124235;27;20434;-64
2023/03/22 12:50:03;;;;;;;6.50;1.60;;;14.70;68.80;;;;;;5125752;27;20099;-65
2023/03/22 12:52:41;;;;;;;5.20;1.55;;;14.70;68.80;;;;;;5123968;27;20431;-63
2023/03/22 12:55:16;;;;;;;5.97;1.75;;;14.70;67.90;;;;;;5123841;27;20074;-66
2023/03/22 12:57:43;;;;;;;7.20;1.63;;;14.70;68.60;;;;;;5122992;27;20093;-65
2023/03/22 13:00:16;;;;;;;7.03;1.30;;;14.70;67.80;;;;;;5124855;27;20075;-63
2023/03/22 13:02:50;;;;;;;4.93;1.40;;;14.70;63.80;;;;;;5125765;27;20087;-63